Time;durP1;ratioP1;P1;durP2;ratioP2;P2;SDS_P1;SDS_P2;PMS_P1;PMS_P2;Temp;Humidity;BMP_temperature;BMP_pressure;BME280_temperature;BME280_humidity;BME280_pressure;Samples;Min_cycle;Max_cycle;Signal;HPM_P1;HPM_P2
2022/05/08 00:00:46;;;;;;;21.90;11.43;;;;;;;12.04;77.13;102523.53;5073321;28;20029;-57
2022/05/08 00:03:12;;;;;;;21.27;11.40;;;;;;;12.03;77.29;102522.72;5073008;28;20036;-57
2022/05/08 00:05:39;;;;;;;22.15;11.77;;;;;;;12.00;77.40;102521.28;5072909;28;20027;-58
2022/05/08 00:08:04;;;;;;;23.30;11.48;;;;;;;12.00;77.61;102518.53;5073154;28;20043;-57
2022/05/08 00:10:30;;;;;;;22.92;11.98;;;;;;;11.96;77.83;102533.19;5071928;28;20025;-57
2022/05/08 00:12:55;;;;;;;24.50;11.60;;;;;;;11.96;77.91;102522.94;5071714;28;20033;-57
2022/05/08 00:15:20;;;;;;;23.13;11.63;;;;;;;11.93;77.68;102522.66;5073071;28;20027;-63
2022/05/08 00:17:45;;;;;;;21.63;11.60;;;;;;;11.90;77.93;102509.31;5073433;28;20033;-56
2022/05/08 00:20:12;;;;;;;21.70;12.00;;;;;;;11.91;77.82;102513.78;5072333;28;20451;-57
2022/05/08 00:22:43;;;;;;;23.08;11.95;;;;;;;11.80;77.82;102499.88;5073514;28;20033;-59
2022/05/08 00:25:08;;;;;;;21.30;11.45;;;;;;;11.80;78.13;102510.16;5072686;28;20052;-59
2022/05/08 00:27:33;;;;;;;22.52;12.35;;;;;;;11.80;77.75;102512.94;5072597;28;20020;-60
2022/05/08 00:29:59;;;;;;;24.20;12.25;;;;;;;11.80;77.61;102522.06;5073100;28;20056;-56
2022/05/08 00:32:24;;;;;;;23.08;12.32;;;;;;;11.74;77.67;102523.16;5072880;28;20028;-57
2022/05/08 00:34:50;;;;;;;22.33;11.77;;;;;;;11.75;77.68;102518.44;5072735;28;20379;-61
2022/05/08 00:37:15;;;;;;;22.42;12.10;;;;;;;11.77;77.60;102519.81;5073140;28;20028;-59
2022/05/08 00:39:42;;;;;;;21.23;12.27;;;;;;;11.71;77.75;102516.22;5071160;28;20139;-57
2022/05/08 00:42:08;;;;;;;27.00;13.77;;;;;;;11.66;78.20;102512.63;5072039;28;20032;-58
2022/05/08 00:44:33;;;;;;;22.45;12.40;;;;;;;11.66;77.97;102518.97;5071160;28;20095;-57
2022/05/08 00:46:59;;;;;;;23.90;13.35;;;;;;;11.56;78.18;102516.16;5072489;28;20161;-58
2022/05/08 00:49:24;;;;;;;22.40;13.27;;;;;;;11.48;78.82;102519.47;5072832;28;20043;-58
2022/05/08 00:51:49;;;;;;;23.27;12.82;;;;;;;11.47;78.73;102509.50;5072727;28;20428;-57
2022/05/08 00:54:16;;;;;;;23.67;13.40;;;;;;;11.37;78.97;102511.13;5072592;28;20056;-57
2022/05/08 00:56:44;;;;;;;22.48;13.38;;;;;;;11.43;79.25;102513.91;5072747;28;20035;-58
2022/05/08 00:59:10;;;;;;;23.63;13.18;;;;;;;11.38;79.18;102517.50;5072433;28;20077;-58
2022/05/08 01:01:35;;;;;;;21.65;13.45;;;;;;;11.43;78.83;102525.81;5072888;28;20070;-58
2022/05/08 01:04:01;;;;;;;22.45;13.23;;;;;;;11.39;79.50;102530.22;5072506;28;20028;-58
2022/05/08 01:06:29;;;;;;;23.35;13.90;;;;;;;11.32;79.78;102540.72;5072326;28;20025;-57
2022/05/08 01:08:55;;;;;;;23.98;13.35;;;;;;;11.34;79.74;102533.00;5071251;28;20032;-56
2022/05/08 01:11:20;;;;;;;22.73;13.50;;;;;;;11.27;80.05;102533.22;5072410;28;20033;-57
2022/05/08 01:13:46;;;;;;;24.27;13.82;;;;;;;11.22;80.10;102539.56;5070973;28;20082;-55
2022/05/08 01:16:13;;;;;;;25.33;13.40;;;;;;;11.17;80.17;102525.72;5071149;28;20033;-56
2022/05/08 01:18:39;;;;;;;23.35;13.55;;;;;;;11.17;80.02;102533.16;5073076;28;20031;-57
2022/05/08 01:21:10;;;;;;;25.02;13.27;;;;;;;11.11;80.08;102540.63;5072616;28;20028;-57
2022/05/08 01:23:36;;;;;;;24.05;13.75;;;;;;;11.11;79.93;102539.81;5072241;28;20100;-58
2022/05/08 01:26:02;;;;;;;22.30;13.77;;;;;;;11.10;80.21;102535.34;5070388;28;20045;-59
2022/05/08 01:28:29;;;;;;;22.63;13.55;;;;;;;11.00;80.56;102536.97;5072320;28;20021;-56
2022/05/08 01:30:55;;;;;;;23.63;13.85;;;;;;;11.00;80.39;102531.44;5074527;28;20021;-57
2022/05/08 01:33:21;;;;;;;24.27;14.23;;;;;;;10.95;80.58;102533.31;5076399;28;20039;-57
2022/05/08 01:35:47;;;;;;;23.65;14.07;;;;;;;10.92;80.95;102538.28;5076403;28;20025;-57
2022/05/08 01:38:14;;;;;;;23.90;13.80;;;;;;;10.88;80.90;102539.09;5075041;28;20700;-56
2022/05/08 01:40:41;;;;;;;24.52;14.15;;;;;;;10.87;80.90;102546.59;5074838;28;20391;-58
2022/05/08 01:43:06;;;;;;;27.08;14.80;;;;;;;10.78;81.38;102542.63;5076269;28;20025;-59
2022/05/08 01:45:33;;;;;;;23.88;14.35;;;;;;;10.72;81.63;102544.53;5076014;28;20035;-56
2022/05/08 01:50:44;;;;;;;23.55;13.93;;;;;;;10.80;80.83;102551.53;5076403;28;20157;-58
2022/05/08 01:53:10;;;;;;;24.73;13.55;;;;;;;10.80;81.11;102554.28;5076491;28;20530;-57
2022/05/08 01:55:38;;;;;;;24.60;14.13;;;;;;;10.74;81.80;102549.78;5074844;28;20025;-59
2022/05/08 01:58:04;;;;;;;24.60;14.57;;;;;;;10.73;81.85;102550.88;5076059;28;20418;-59
2022/05/08 02:00:30;;;;;;;25.13;14.15;;;;;;;10.66;82.18;102544.75;5076002;28;20025;-58
2022/05/08 02:03:00;;;;;;;26.10;14.85;;;;;;;10.57;82.49;102555.50;5076437;28;20401;-58
2022/05/08 02:05:28;;;;;;;24.30;14.77;;;;;;;10.58;82.49;102560.75;5076157;28;20035;-57
2022/05/08 02:07:54;;;;;;;24.42;13.95;;;;;;;10.63;82.20;102561.91;5075932;28;20036;-56
2022/05/08 02:10:19;;;;;;;26.35;14.43;;;;;;;10.65;81.69;102559.69;5075992;28;20031;-56
2022/05/08 02:12:46;;;;;;;24.33;14.45;;;;;;;10.65;81.52;102571.63;5075754;28;20064;-55
2022/05/08 02:15:12;;;;;;;23.90;13.82;;;;;;;10.58;81.57;102577.34;5076254;28;20020;-57
2022/05/08 02:17:39;;;;;;;25.35;14.75;;;;;;;10.59;81.37;102564.34;5075891;28;20110;-59
2022/05/08 02:20:07;;;;;;;24.42;14.20;;;;;;;10.55;81.87;102569.56;5075888;28;20033;-56
2022/05/08 02:22:33;;;;;;;24.17;14.10;;;;;;;10.49;80.92;102569.78;5075534;28;20094;-57
2022/05/08 02:24:58;;;;;;;26.63;14.10;;;;;;;10.42;81.51;102572.78;5094162;22;20049;-52
2022/05/08 02:27:23;;;;;;;27.23;15.25;;;;;;;10.34;81.43;102574.06;5054603;28;20035;-50
2022/05/08 02:29:50;;;;;;;26.75;14.63;;;;;;;10.36;81.54;102569.13;5054665;28;20128;-49
2022/05/08 02:32:15;;;;;;;25.70;14.45;;;;;;;10.36;81.10;102571.88;5054422;28;20029;-50
2022/05/08 02:34:41;;;;;;;26.65;15.10;;;;;;;10.27;81.53;102574.28;5054355;28;20036;-51
2022/05/08 02:37:07;;;;;;;27.90;14.35;;;;;;;10.25;81.78;102564.56;5054226;28;20518;-52
2022/05/08 02:39:32;;;;;;;26.27;14.38;;;;;;;10.28;81.52;102570.41;5054097;28;20041;-52
2022/05/08 02:41:58;;;;;;;25.23;14.27;;;;;;;10.24;81.65;102568.44;5053255;28;20025;-52
2022/05/08 02:44:23;;;;;;;26.17;14.10;;;;;;;10.21;81.79;102578.09;5052787;28;20025;-52
2022/05/08 02:46:48;;;;;;;26.42;14.90;;;;;;;10.17;82.13;102570.59;5054250;28;20086;-51
2022/05/08 02:49:13;;;;;;;26.25;14.85;;;;;;;10.17;81.76;102584.41;5054293;28;20025;-52
2022/05/08 02:51:39;;;;;;;27.00;14.52;;;;;;;10.12;81.22;102577.72;5054748;28;20025;-54
2022/05/08 02:54:04;;;;;;;25.85;13.55;;;;;;;10.04;81.17;102574.59;5053248;28;20507;-52
2022/05/08 02:59:15;;;;;;;24.15;12.82;;;;;;;10.01;79.98;102575.97;5054933;28;20438;-50
2022/05/08 03:01:40;;;;;;;21.98;11.68;;;;;;;10.00;79.26;102582.59;5053981;28;20449;-51
2022/05/08 03:04:06;;;;;;;24.92;12.13;;;;;;;10.03;77.53;102582.03;5053929;28;20108;-51
2022/05/08 03:06:31;;;;;;;22.45;11.63;;;;;;;10.01;77.94;102575.97;5054338;28;20028;-49
2022/05/08 03:08:56;;;;;;;27.25;11.90;;;;;;;10.02;78.04;102576.78;5054153;28;20021;-51
2022/05/08 03:11:28;;;;;;;24.17;12.38;;;;;;;10.02;78.02;102580.38;5054271;28;20032;-49
2022/05/08 03:13:54;;;;;;;23.98;11.55;;;;;;;10.04;77.78;102580.13;5053844;28;20037;-49
2022/05/08 03:16:22;;;;;;;24.98;11.77;;;;;;;10.03;77.85;102575.69;5054060;28;20425;-49
2022/05/08 03:18:48;;;;;;;25.55;11.43;;;;;;;9.97;78.02;102578.38;5053682;28;20052;-49
2022/05/08 03:21:15;;;;;;;24.15;11.88;;;;;;;9.99;77.42;102576.19;5054254;28;20100;-50
2022/05/08 03:23:41;;;;;;;25.42;11.50;;;;;;;9.91;76.14;102573.09;5053622;28;20074;-50
2022/05/08 03:26:07;;;;;;;26.58;12.50;;;;;;;9.77;76.49;102584.53;5053448;28;20395;-48
2022/05/08 03:28:34;;;;;;;24.83;11.20;;;;;;;9.77;76.69;102584.53;5053463;28;20021;-52
2022/05/08 03:31:00;;;;;;;26.10;10.73;;;;;;;9.75;76.37;102589.47;5053838;28;20050;-49
2022/05/08 03:33:29;;;;;;;25.92;11.05;;;;;;;9.67;75.97;102581.63;5053557;28;20033;-50
2022/05/08 03:35:55;;;;;;;26.48;11.52;;;;;;;9.63;75.92;102588.78;5053652;28;20036;-49
2022/05/08 03:38:21;;;;;;;25.90;10.95;;;;;;;9.60;76.25;102587.34;5053679;28;20394;-48
2022/05/08 03:40:46;;;;;;;25.80;10.93;;;;;;;9.51;76.58;102583.34;5053892;28;20033;-48
2022/05/08 03:43:12;;;;;;;23.38;10.20;;;;;;;9.54;76.34;102587.56;5053476;28;20091;-48
2022/05/08 03:45:37;;;;;;;25.33;10.88;;;;;;;9.49;75.97;102580.03;5053388;28;20025;-49
2022/05/08 03:48:03;;;;;;;24.35;10.80;;;;;;;9.55;75.74;102586.44;5052125;28;20041;-50
2022/05/08 03:50:29;;;;;;;28.52;10.70;;;;;;;9.44;76.38;102585.47;5053315;28;20047;-49
2022/05/08 03:52:59;;;;;;;28.20;10.68;;;;;;;9.43;76.15;102584.66;5053393;28;20103;-48
2022/05/08 03:55:25;;;;;;;25.05;10.63;;;;;;;9.44;75.48;102583.56;5052825;28;20494;-47
2022/05/08 03:57:51;;;;;;;27.38;11.02;;;;;;;9.40;75.98;102578.81;5051271;28;20363;-49
2022/05/08 04:00:17;;;;;;;26.75;11.40;;;;;;;9.35;76.09;102588.69;5052646;28;20025;-48
2022/05/08 04:02:43;;;;;;;23.77;10.95;;;;;;;9.29;76.20;102580.59;5052481;28;20138;-48
2022/05/08 04:05:10;;;;;;;26.40;10.90;;;;;;;9.29;76.56;102589.72;5051236;28;20495;-48
2022/05/08 04:07:35;;;;;;;23.55;11.07;;;;;;;9.29;77.02;102583.34;5052539;28;20021;-48
2022/05/08 04:10:00;;;;;;;29.15;11.18;;;;;;;9.28;76.82;102589.97;5051253;28;20468;-48
2022/05/08 04:12:26;;;;;;;26.90;10.25;;;;;;;9.27;76.79;102600.19;5052672;28;20036;-48
2022/05/08 04:14:53;;;;;;;25.42;10.68;;;;;;;9.24;76.49;102595.16;5052452;28;20095;-49
2022/05/08 04:17:19;;;;;;;23.52;9.73;;;;;;;9.19;76.82;102603.38;5052578;28;20412;-49
2022/05/08 04:19:46;;;;;;;23.95;10.20;;;;;;;9.15;77.24;102600.28;5052530;28;20037;-48
2022/05/08 04:24:57;;;;;;;29.40;10.85;;;;;;;9.13;77.28;102605.22;5052601;28;20510;-50
2022/05/08 04:27:22;;;;;;;25.25;10.20;;;;;;;9.14;77.47;102603.28;5052934;28;20013;-51
2022/05/08 04:29:47;;;;;;;26.17;10.32;;;;;;;9.13;77.24;102607.13;5052765;28;20113;-48
2022/05/08 04:32:13;;;;;;;28.85;10.55;;;;;;;9.15;77.26;102610.47;5052653;28;20067;-48
2022/05/08 04:34:38;;;;;;;26.35;10.20;;;;;;;9.14;77.27;102606.03;5052689;28;20051;-49
2022/05/08 04:37:03;;;;;;;29.02;10.57;;;;;;;9.09;77.49;102614.25;5052727;28;20404;-49
2022/05/08 04:39:29;;;;;;;22.40;10.00;;;;;;;9.12;77.53;102614.59;5052459;28;20017;-48
2022/05/08 04:41:54;;;;;;;27.08;10.00;;;;;;;9.14;77.54;102612.41;5052359;28;20017;-48
2022/05/08 04:44:20;;;;;;;28.65;9.88;;;;;;;9.17;77.50;102602.78;5051812;28;20051;-49
2022/05/08 04:46:45;;;;;;;27.20;9.82;;;;;;;9.10;77.43;102608.47;5052153;28;20471;-51
2022/05/08 04:49:10;;;;;;;26.90;9.68;;;;;;;9.07;77.23;102608.97;5050664;28;20471;-51
2022/05/08 04:51:36;;;;;;;23.58;9.45;;;;;;;9.02;77.34;102604.22;5052300;28;20103;-49
2022/05/08 04:54:02;;;;;;;25.70;9.85;;;;;;;9.07;77.12;102617.25;5051039;28;20028;-48
2022/05/08 04:56:27;;;;;;;24.48;9.68;;;;;;;9.08;77.43;102615.34;5052209;28;20443;-49
2022/05/08 04:58:52;;;;;;;29.10;10.07;;;;;;;9.11;77.15;102620.38;5051996;28;20510;-49
2022/05/08 05:01:17;;;;;;;27.02;10.25;;;;;;;9.14;76.36;102623.47;5050158;28;20028;-48
2022/05/08 05:03:43;;;;;;;29.23;10.20;;;;;;;9.15;76.22;102621.53;5051618;28;20100;-48
2022/05/08 05:06:08;;;;;;;25.52;9.30;;;;;;;9.17;76.13;102620.19;5051451;28;20305;-50
2022/05/08 05:08:34;;;;;;;29.42;10.52;;;;;;;9.20;75.89;102630.72;5051980;28;20039;-51
2022/05/08 05:10:59;;;;;;;22.17;9.40;;;;;;;9.19;75.83;102631.81;5050984;28;20087;-49
2022/05/08 05:13:25;;;;;;;26.15;9.90;;;;;;;9.23;75.53;102642.38;5052222;28;20471;-49
2022/05/08 05:15:51;;;;;;;26.50;10.15;;;;;;;9.22;75.15;102638.75;5052393;28;20108;-48
2022/05/08 05:18:16;;;;;;;29.60;10.05;;;;;;;9.29;75.02;102644.09;5052389;28;20028;-48
2022/05/08 05:20:42;;;;;;;26.00;9.07;;;;;;;9.33;74.83;102645.28;5050716;28;20052;-48
2022/05/08 05:23:08;;;;;;;27.20;10.10;;;;;;;9.38;73.53;102652.81;5052042;28;20044;-49
2022/05/08 05:25:33;;;;;;;26.23;9.32;;;;;;;9.31;73.47;102656.56;5050102;28;20041;-49
2022/05/08 05:27:58;;;;;;;24.73;9.30;;;;;;;9.27;74.15;102657.31;5051612;28;20021;-51
2022/05/08 05:30:24;;;;;;;26.52;10.02;;;;;;;9.30;73.22;102652.16;5051703;28;20409;-48
2022/05/08 05:32:49;;;;;;;27.50;9.20;;;;;;;9.35;73.46;102659.69;5051924;28;20060;-49
2022/05/08 05:35:14;;;;;;;22.77;9.00;;;;;;;9.45;73.39;102665.34;5051894;28;20025;-49
2022/05/08 05:37:40;;;;;;;24.77;9.20;;;;;;;9.58;72.74;102668.84;5051812;28;20025;-48
2022/05/08 05:40:09;;;;;;;26.25;9.02;;;;;;;9.58;72.30;102669.69;5051660;28;20455;-48
2022/05/08 05:42:34;;;;;;;27.33;9.60;;;;;;;9.41;72.33;102672.47;5051694;28;20044;-49
2022/05/08 05:45:00;;;;;;;24.75;9.40;;;;;;;9.52;72.69;102671.53;5051585;28;20472;-48
2022/05/08 05:50:11;;;;;;;26.30;8.90;;;;;;;9.58;71.78;102686.25;5052472;28;20076;-48
2022/05/08 05:52:37;;;;;;;28.13;9.40;;;;;;;9.66;71.37;102680.28;5051852;28;20100;-49
2022/05/08 05:55:06;;;;;;;27.77;8.43;;;;;;;9.65;71.19;102680.53;5051533;28;20123;-50
2022/05/08 05:57:32;;;;;;;26.70;9.23;;;;;;;9.72;71.39;102680.34;5050052;28;20025;-49
2022/05/08 05:59:57;;;;;;;25.90;9.35;;;;;;;9.80;70.39;102680.75;5051790;28;20035;-48
2022/05/08 06:02:22;;;;;;;27.58;8.90;;;;;;;9.78;70.57;102682.09;5051708;28;20479;-47
2022/05/08 06:04:47;;;;;;;24.38;8.30;;;;;;;9.86;69.51;102698.25;5051590;28;20028;-48
2022/05/08 06:07:13;;;;;;;26.63;8.65;;;;;;;9.82;69.62;102697.91;5051607;28;20057;-49
2022/05/08 06:09:38;;;;;;;25.48;9.43;;;;;;;9.86;69.50;102700.16;5051528;28;20329;-51
2022/05/08 06:12:04;;;;;;;27.40;8.80;;;;;;;9.81;69.68;102698.16;5051435;28;20464;-49
2022/05/08 06:14:29;;;;;;;26.45;8.90;;;;;;;9.96;70.02;102692.00;5051331;28;20108;-48
2022/05/08 06:16:55;;;;;;;28.52;9.32;;;;;;;10.06;68.68;102696.84;5051654;28;20054;-51
2022/05/08 06:19:20;;;;;;;24.02;9.15;;;;;;;10.11;68.02;102694.97;5054966;28;20479;-48
2022/05/08 06:21:47;;;;;;;22.50;8.48;;;;;;;10.15;67.92;102690.59;5055308;28;20055;-48
2022/05/08 06:24:12;;;;;;;22.92;8.75;;;;;;;10.20;67.50;102683.47;5054798;28;20025;-48
2022/05/08 06:26:38;;;;;;;24.80;8.85;;;;;;;10.26;67.54;102708.13;5054292;28;20063;-48
2022/05/08 06:29:03;;;;;;;23.05;8.45;;;;;;;10.28;67.35;102705.97;5054609;28;20021;-49
2022/05/08 06:31:28;;;;;;;22.42;8.60;;;;;;;10.37;67.35;102708.25;5054737;28;20059;-49
2022/05/08 06:33:54;;;;;;;27.27;8.85;;;;;;;10.48;66.63;102709.25;5054924;28;20399;-49
2022/05/08 06:36:19;;;;;;;24.52;9.35;;;;;;;10.50;66.18;102715.34;5054778;28;20048;-50
2022/05/08 06:38:44;;;;;;;27.77;8.68;;;;;;;10.54;66.31;102714.56;5054526;28;20494;-53
2022/05/08 06:41:10;;;;;;;26.42;8.90;;;;;;;10.66;66.01;102713.59;5054518;28;20029;-52
2022/05/08 06:43:40;;;;;;;23.95;9.48;;;;;;;10.63;65.66;102701.13;5054585;28;20071;-52
2022/05/08 06:46:05;;;;;;;26.40;9.57;;;;;;;10.77;65.73;102715.38;5054348;28;20112;-52
2022/05/08 06:48:32;;;;;;;27.02;9.45;;;;;;;10.90;65.72;102722.41;5054477;28;20064;-52
2022/05/08 06:50:57;;;;;;;24.83;8.68;;;;;;;10.98;65.51;102727.47;5054610;28;20498;-52
2022/05/08 06:53:22;;;;;;;27.58;9.45;;;;;;;11.13;64.61;102714.88;5053959;28;20112;-51
2022/05/08 06:55:47;;;;;;;23.88;9.32;;;;;;;11.25;64.18;102726.59;5054480;28;20102;-52
2022/05/08 06:58:13;;;;;;;28.65;9.07;;;;;;;11.23;63.07;102720.50;5054078;28;20044;-52
2022/05/08 07:03:22;;;;;;;26.52;10.40;;;;;;;11.08;64.13;102726.75;5054166;28;20132;-56
2022/05/08 07:05:47;;;;;;;25.38;9.23;;;;;;;11.17;63.69;102727.09;5052451;28;20119;-52
2022/05/08 07:08:14;;;;;;;22.95;9.45;;;;;;;11.09;63.88;102733.97;5053740;28;20471;-52
2022/05/08 07:10:39;;;;;;;21.98;8.98;;;;;;;11.22;64.40;102722.41;5053827;28;20057;-54
2022/05/08 07:13:05;;;;;;;23.85;9.07;;;;;;;11.33;63.43;102734.44;5052446;28;20056;-52
2022/05/08 07:15:30;;;;;;;25.02;10.00;;;;;;;11.25;62.69;102743.22;5053873;28;20113;-52
2022/05/08 07:17:55;;;;;;;27.55;9.27;;;;;;;11.25;63.01;102737.66;5053770;28;20103;-52
2022/05/08 07:20:21;;;;;;;23.08;8.90;;;;;;;11.39;63.13;102738.06;5053975;28;20025;-52
2022/05/08 07:22:46;;;;;;;24.52;9.15;;;;;;;11.52;62.54;102739.56;5054054;28;20029;-53
2022/05/08 07:25:12;;;;;;;23.45;9.10;;;;;;;11.70;62.14;102738.28;5054284;28;20053;-52
2022/05/08 07:27:39;;;;;;;24.83;9.45;;;;;;;11.64;61.71;102731.88;5053971;28;20029;-49
2022/05/08 07:30:05;;;;;;;23.83;9.60;;;;;;;11.61;61.79;102740.75;5053550;28;20105;-49
2022/05/08 07:32:33;;;;;;;23.45;8.88;;;;;;;11.45;61.74;102733.41;5053817;28;20037;-51
2022/05/08 07:37:43;;;;;;;23.70;9.45;;;;;;;11.20;62.60;102744.00;5053957;28;20499;-50
2022/05/08 07:40:10;;;;;;;28.00;9.40;;;;;;;11.16;63.46;102753.09;5053647;28;20390;-52
2022/05/08 07:42:35;;;;;;;27.55;9.25;;;;;;;11.19;63.50;102747.06;5053563;28;20029;-52
2022/05/08 07:45:00;;;;;;;26.42;10.25;;;;;;;11.15;64.11;102743.13;5053134;28;20112;-49
2022/05/08 07:47:26;;;;;;;26.48;10.07;;;;;;;11.11;63.90;102744.78;5053205;28;20029;-53
2022/05/08 07:49:51;;;;;;;25.25;9.40;;;;;;;11.11;63.65;102756.66;5052968;28;20054;-52
2022/05/08 07:52:16;;;;;;;24.58;9.52;;;;;;;11.16;64.21;102753.09;5052970;28;20028;-51
2022/05/08 07:54:44;;;;;;;25.70;9.38;;;;;;;11.28;64.38;102739.94;5053293;28;20486;-48
2022/05/08 07:57:09;;;;;;;31.65;10.40;;;;;;;11.48;63.83;102747.56;5053162;28;20059;-50
2022/05/08 07:59:35;;;;;;;24.45;9.07;;;;;;;11.54;63.68;102749.28;5052506;28;20112;-51
2022/05/08 08:02:00;;;;;;;25.52;10.25;;;;;;;11.58;63.71;102755.13;5052779;28;20360;-51
2022/05/08 08:04:26;;;;;;;25.65;9.98;;;;;;;11.75;63.34;102751.34;5052781;28;20025;-53
2022/05/08 08:06:51;;;;;;;26.30;10.90;;;;;;;11.86;62.81;102755.84;5053354;28;20079;-52
2022/05/08 08:09:17;;;;;;;26.15;9.30;;;;;;;11.93;61.93;102758.41;5053035;28;20064;-49
2022/05/08 08:11:42;;;;;;;25.75;9.73;;;;;;;12.12;61.83;102754.09;5052935;28;20029;-49
2022/05/08 08:14:08;;;;;;;25.15;9.32;;;;;;;12.16;61.21;102758.00;5052937;28;20395;-49
2022/05/08 08:16:33;;;;;;;24.08;9.68;;;;;;;12.21;61.38;102757.16;5052897;28;20464;-52
2022/05/08 08:19:00;;;;;;;22.50;9.52;;;;;;;12.16;60.35;102763.53;5052805;28;20447;-51
2022/05/08 08:21:25;;;;;;;24.88;9.20;;;;;;;12.19;60.67;102756.59;5052988;28;20025;-49
2022/05/08 08:23:51;;;;;;;24.48;9.50;;;;;;;12.37;59.16;102762.81;5053140;28;20040;-56
2022/05/08 08:26:17;;;;;;;22.63;9.13;;;;;;;12.37;59.20;102758.06;5052849;28;20075;-49
2022/05/08 08:28:42;;;;;;;26.45;10.02;;;;;;;12.36;58.65;102761.13;5052657;28;20364;-51
2022/05/08 08:31:09;;;;;;;24.02;9.10;;;;;;;12.32;58.92;102758.91;5051225;28;20029;-49
2022/05/08 08:33:38;;;;;;;25.88;10.48;;;;;;;12.29;58.07;102764.16;5052630;28;20061;-51
2022/05/08 08:36:04;;;;;;;21.83;9.30;;;;;;;12.39;59.19;102760.56;5052747;28;20031;-51
2022/05/08 08:38:29;;;;;;;25.85;9.82;;;;;;;12.60;58.37;102765.09;5052807;28;20116;-52
2022/05/08 08:40:56;;;;;;;22.23;8.70;;;;;;;12.56;55.95;102771.47;5050758;28;20067;-52
2022/05/08 08:43:22;;;;;;;23.70;9.30;;;;;;;12.53;54.66;102770.09;5052554;28;20029;-52
2022/05/08 08:48:34;;;;;;;19.20;8.00;;;;;;;12.60;55.21;102773.44;5053146;28;20486;-50
2022/05/08 08:51:01;;;;;;;18.65;8.10;;;;;;;12.80;55.84;102760.72;5051244;28;20068;-51
2022/05/08 08:53:28;;;;;;;24.00;8.52;;;;;;;12.84;54.62;102772.09;5052577;28;20029;-52
2022/05/08 08:55:54;;;;;;;25.63;9.15;;;;;;;13.03;54.30;102769.66;5052574;28;20110;-50
2022/05/08 08:58:20;;;;;;;22.25;8.57;;;;;;;13.17;54.14;102767.97;5052569;28;20021;-51
2022/05/08 09:00:47;;;;;;;21.75;8.48;;;;;;;13.18;52.47;102769.66;5052296;28;20021;-51
2022/05/08 09:03:25;;;;;;;21.85;7.72;;;;;;;13.22;53.32;102756.88;5051954;28;20029;-52
2022/05/08 09:05:56;;;;;;;18.65;8.18;;;;;;;13.29;52.22;102748.25;5051903;28;20055;-51
2022/05/08 09:08:27;;;;;;;21.92;8.65;;;;;;;13.44;53.65;102753.00;5052573;28;20048;-52
2022/05/08 09:10:54;;;;;;;23.80;8.52;;;;;;;13.56;53.53;102758.25;5052199;28;20166;-52
2022/05/08 09:13:19;;;;;;;21.50;8.77;;;;;;;13.72;53.74;102761.88;5052664;28;20375;-52
2022/05/08 09:15:45;;;;;;;23.00;8.55;;;;;;;13.81;53.14;102754.63;5052361;28;20029;-51
2022/05/08 09:18:12;;;;;;;24.63;8.73;;;;;;;13.83;52.40;102757.94;5052142;28;20048;-50
2022/05/08 09:20:41;;;;;;;22.10;8.52;;;;;;;13.97;52.30;102760.97;5052255;28;20033;-52
2022/05/08 09:23:17;;;;;;;23.25;8.35;;;;;;;13.97;52.13;102763.75;5051810;28;20079;-52
2022/05/08 09:25:45;;;;;;;19.83;8.68;;;;;;;13.72;51.94;102768.28;5051327;28;20064;-51
2022/05/08 09:28:18;;;;;;;21.00;8.40;;;;;;;13.77;52.40;102761.03;5051918;28;20231;-52
2022/05/08 09:30:52;;;;;;;20.88;8.00;;;;;;;13.81;52.67;102751.84;5050799;28;20494;-52
2022/05/08 09:33:31;;;;;;;22.02;8.18;;;;;;;14.01;52.64;102750.97;5051930;28;20103;-52
2022/05/08 09:35:58;;;;;;;23.70;8.40;;;;;;;14.06;50.14;102754.81;5051724;28;20029;-52
2022/05/08 09:38:48;;;;;;;21.92;8.20;;;;;;;14.15;49.26;102753.97;5051990;28;20039;-52
2022/05/08 09:41:16;;;;;;;21.58;8.15;;;;;;;13.89;50.77;102737.34;5052003;28;20116;-52
2022/05/08 09:43:41;;;;;;;23.38;8.70;;;;;;;13.94;50.77;102744.84;5051437;28;20496;-48
2022/05/08 09:46:08;;;;;;;18.48;7.50;;;;;;;14.18;50.33;102744.22;5051060;28;20022;-52
2022/05/08 09:48:34;;;;;;;21.48;8.05;;;;;;;14.30;49.03;102747.50;5051029;28;20428;-52
2022/05/08 09:51:02;;;;;;;21.05;8.00;;;;;;;14.36;49.83;102762.22;5051842;28;20029;-50
2022/05/08 09:53:28;;;;;;;23.58;8.93;;;;;;;14.15;50.31;102750.34;5055329;28;20041;-51
2022/05/08 09:55:55;;;;;;;23.63;8.18;;;;;;;14.28;49.95;102743.31;5055614;28;20037;-51
2022/05/08 09:58:21;;;;;;;19.50;7.88;;;;;;;14.33;48.33;102740.53;5055191;28;20043;-50
2022/05/08 10:00:52;;;;;;;22.05;7.72;;;;;;;14.55;48.31;102751.28;5054863;28;20032;-55
2022/05/08 10:03:19;;;;;;;20.60;7.45;;;;;;;14.58;47.29;102749.88;5055358;28;20426;-55
2022/05/08 10:05:45;;;;;;;21.20;8.25;;;;;;;14.63;48.13;102747.06;5054763;28;20099;-52
2022/05/08 10:08:16;;;;;;;18.95;7.78;;;;;;;14.57;48.02;102743.47;5054970;28;20041;-50
2022/05/08 10:13:54;;;;;;;23.80;8.63;;;;;;;14.77;48.28;102748.13;5055139;28;20103;-52
2022/05/08 10:16:52;;;;;;;21.95;7.97;;;;;;;14.72;48.50;102734.22;5054822;28;20033;-55
2022/05/08 10:19:17;;;;;;;21.48;7.80;;;;;;;14.66;48.12;102732.53;5054765;28;20490;-53
2022/05/08 10:22:03;;;;;;;18.83;7.77;;;;;;;14.97;48.46;102732.38;5054597;28;20024;-51
2022/05/08 10:24:36;;;;;;;19.25;7.28;;;;;;;15.23;46.27;102727.44;5054790;28;20327;-49
2022/05/08 10:27:09;;;;;;;21.17;7.22;;;;;;;15.36;46.31;102727.88;5055087;28;20033;-49
2022/05/08 10:29:34;;;;;;;18.38;7.18;;;;;;;15.40;45.63;102715.00;5053599;28;20433;-51
2022/05/08 10:32:00;;;;;;;20.45;7.35;;;;;;;15.62;45.64;102710.91;5054700;28;20112;-50
2022/05/08 10:34:33;;;;;;;21.88;7.65;;;;;;;15.80;45.02;102712.09;5054723;28;20124;-49
2022/05/08 10:37:14;;;;;;;21.13;6.95;;;;;;;15.74;44.89;102719.69;5054933;28;20032;-50
2022/05/08 10:39:43;;;;;;;18.90;7.18;;;;;;;15.56;41.60;102708.16;5054571;28;20108;-48
2022/05/08 10:42:40;;;;;;;17.50;6.80;;;;;;;15.70;43.27;102716.66;5054696;28;20416;-49
2022/05/08 10:45:06;;;;;;;18.88;6.93;;;;;;;15.68;43.69;102715.28;5054715;28;20035;-48
2022/05/08 10:47:37;;;;;;;19.60;7.00;;;;;;;15.70;44.17;102711.06;5054543;28;20036;-50
2022/05/08 10:50:03;;;;;;;19.88;7.40;;;;;;;15.64;43.90;102717.84;5054600;28;20029;-50
2022/05/08 10:52:32;;;;;;;18.90;6.97;;;;;;;15.36;44.95;102703.63;5054503;28;20073;-48
2022/05/08 10:54:58;;;;;;;19.38;7.28;;;;;;;15.56;44.39;102696.16;5054342;28;20025;-50
2022/05/08 10:57:31;;;;;;;20.73;7.50;;;;;;;15.81;44.95;102699.78;5054266;28;20360;-51
2022/05/08 10:59:56;;;;;;;18.45;7.40;;;;;;;16.04;44.13;102698.16;5054296;28;20037;-51
2022/05/08 11:02:40;;;;;;;19.50;7.13;;;;;;;16.10;43.31;102698.91;5054268;28;20028;-52
2022/05/08 11:05:07;;;;;;;18.52;7.45;;;;;;;16.06;43.33;102705.09;5054271;28;20033;-49
2022/05/08 11:07:33;;;;;;;19.83;7.13;;;;;;;16.08;42.47;102702.03;5054157;28;20108;-49
2022/05/08 11:09:59;;;;;;;21.27;7.70;;;;;;;16.01;43.44;102696.78;5054221;28;20025;-51
2022/05/08 11:12:24;;;;;;;21.35;8.32;;;;;;;16.14;44.36;102702.78;5054442;28;20390;-51
2022/05/08 11:14:50;;;;;;;18.20;7.80;;;;;;;16.40;44.45;102697.66;5054390;28;20475;-51
2022/05/08 11:17:17;;;;;;;20.83;8.00;;;;;;;16.48;43.62;102705.38;5054391;28;20476;-49
2022/05/08 11:19:52;;;;;;;20.55;7.85;;;;;;;16.65;44.38;102701.25;5052952;28;20458;-50
2022/05/08 11:22:18;;;;;;;20.52;7.85;;;;;;;16.63;43.80;102707.09;5054029;28;20063;-51
2022/05/08 11:24:45;;;;;;;22.30;7.93;;;;;;;16.56;43.61;102703.06;5053745;28;20049;-51
2022/05/08 11:27:12;;;;;;;18.65;7.85;;;;;;;16.83;44.22;102700.41;5053919;28;20025;-51
2022/05/08 11:29:38;;;;;;;23.27;8.88;;;;;;;16.86;42.75;102698.94;5053748;28;20033;-48
2022/05/08 11:38:01;;;;;;;21.23;8.00;;;;;;;16.44;43.55;102690.38;5053996;28;20044;-51
2022/05/08 11:40:27;;;;;;;23.17;9.07;;;;;;;16.51;43.36;102692.78;5053588;28;20067;-52